createdAt,value
2018-09-27T00:01:57.020Z,102251.56
2018-09-27T00:07:00.571Z,102253.75
2018-09-27T00:12:04.229Z,102253.75
2018-09-27T00:17:07.799Z,102256.83
2018-09-27T00:22:11.373Z,102255.95
2018-09-27T00:27:14.896Z,102260.33
2018-09-27T00:32:18.435Z,102259.94
2018-09-27T00:37:22.033Z,102252.48
2018-09-27T00:42:25.598Z,102250.28
2018-09-27T00:47:29.171Z,102248.11
2018-09-27T00:52:32.766Z,102250.27
2018-09-27T00:57:36.296Z,102247.63
2018-09-27T01:02:39.833Z,102243.27
2018-09-27T01:07:43.337Z,102247.61
2018-09-27T01:12:46.969Z,102240.17
2018-09-27T01:17:50.481Z,102240.19
2018-09-27T01:22:54.015Z,102230.13
2018-09-27T01:27:57.619Z,102220.08
2018-09-27T01:33:03.280Z,102220.50
2018-09-27T01:38:07.070Z,102226.17
2018-09-27T01:43:10.735Z,102214.81
2018-09-27T01:48:14.320Z,102215.67
2018-09-27T01:53:17.923Z,102213.48
2018-09-27T01:58:21.606Z,102209.13
2018-09-27T02:03:25.193Z,102204.73
2018-09-27T02:08:28.852Z,102202.15
2018-09-27T02:13:32.518Z,102193.44
2018-09-27T02:18:36.107Z,102187.29
2018-09-27T02:23:39.714Z,102179.86
2018-09-27T02:28:43.233Z,102171.11
2018-09-27T02:33:46.903Z,102162.34
2018-09-27T02:38:50.540Z,102159.75
2018-09-27T02:43:54.178Z,102168.95
2018-09-27T02:48:57.854Z,102158.87
2018-09-27T02:54:01.535Z,102158.44
2018-09-27T02:59:05.071Z,102160.21
2018-09-27T03:04:08.904Z,102146.62
2018-09-27T03:09:13.417Z,102150.98
2018-09-27T03:14:16.988Z,102151.02
2018-09-27T03:19:20.532Z,102155.81
2018-09-27T03:24:24.184Z,102151.89
2018-09-27T03:29:27.780Z,102156.30
2018-09-27T03:34:31.432Z,102155.86
2018-09-27T03:39:35.038Z,102160.19
2018-09-27T03:44:38.701Z,102154.95
2018-09-27T03:49:42.299Z,102150.16
2018-09-27T03:54:45.929Z,102143.61
2018-09-27T03:59:49.560Z,102140.55
2018-09-27T04:04:53.211Z,102135.33
2018-09-27T04:09:56.783Z,102135.77
2018-09-27T04:15:00.374Z,102132.27
2018-09-27T04:20:03.938Z,102132.70
2018-09-27T04:25:07.583Z,102134.45
2018-09-27T04:30:11.558Z,102129.20
2018-09-27T04:35:15.187Z,102128.34
2018-09-27T04:40:29.800Z,102125.72
2018-09-27T04:45:33.393Z,102126.59
2018-09-27T04:50:36.954Z,102122.22
2018-09-27T04:55:40.547Z,102121.33
2018-09-27T05:00:44.386Z,102126.14
2018-09-27T05:05:47.955Z,102127.45
2018-09-27T05:10:51.583Z,102116.95
2018-09-27T05:15:55.339Z,102114.77
2018-09-27T05:20:58.893Z,102107.80
2018-09-27T05:26:02.617Z,102110.41
2018-09-27T05:31:06.217Z,102112.55
2018-09-27T05:36:09.798Z,102117.80
2018-09-27T05:41:13.418Z,102109.45
2018-09-27T05:46:17.035Z,102107.71
2018-09-27T05:51:20.578Z,102107.70
2018-09-27T05:56:24.151Z,102102.50
2018-09-27T06:01:27.816Z,102112.52
2018-09-27T06:06:31.410Z,102116.45
2018-09-27T06:11:35.077Z,102115.55
2018-09-27T06:16:39.849Z,102120.78
2018-09-27T06:21:43.415Z,102117.29
2018-09-27T06:26:47.060Z,102109.44
2018-09-27T06:31:50.720Z,102116.45
2018-09-27T06:36:54.366Z,102115.95
2018-09-27T06:41:57.990Z,102115.98
2018-09-27T06:47:01.507Z,102113.34
2018-09-27T06:52:05.097Z,102118.11
2018-09-27T06:57:08.691Z,102111.50
2018-09-27T07:02:13.854Z,102103.63
2018-09-27T07:07:17.596Z,102113.20
2018-09-27T07:12:21.295Z,102106.53
2018-09-27T07:17:24.762Z,102099.80
2018-09-27T07:22:28.392Z,102101.91
2018-09-27T07:27:31.984Z,102100.49
2018-09-27T07:32:35.628Z,102105.38
2018-09-27T07:37:39.240Z,102096.42
2018-09-27T07:42:42.900Z,102089.09
2018-09-27T07:47:46.520Z,102089.45
2018-09-27T07:52:50.054Z,102090.63
2018-09-27T07:57:53.692Z,102087.91
2018-09-27T08:02:57.355Z,102089.80
2018-09-27T08:08:00.773Z,102085.25
2018-09-27T08:13:04.354Z,102084.58
2018-09-27T08:18:08.040Z,102081.23
2018-09-27T08:23:11.834Z,102081.88
2018-09-27T08:28:15.457Z,102077.81
2018-09-27T08:33:19.112Z,102078.53
2018-09-27T08:38:22.693Z,102070.41
2018-09-27T08:43:26.382Z,102066.30
2018-09-27T08:48:29.986Z,102061.70
2018-09-27T08:53:33.684Z,102047.92
2018-09-27T08:58:37.309Z,102041.50
2018-09-27T09:03:43.640Z,102024.09
2018-09-27T09:08:48.618Z,102028.10
2018-09-27T09:13:52.751Z,102012.75
2018-09-27T09:18:56.727Z,102013.60
2018-09-27T09:24:06.294Z,102008.89
2018-09-27T09:29:10.929Z,101992.37
2018-09-27T09:34:14.607Z,101988.56
2018-09-27T09:39:18.433Z,101978.53
2018-09-27T09:44:22.084Z,101978.69
2018-09-27T09:49:25.749Z,101978.06
2018-09-27T09:54:29.432Z,101972.00
2018-09-27T09:59:32.977Z,101957.73
2018-09-27T10:04:36.611Z,101949.25
2018-09-27T10:09:40.306Z,101947.77
2018-09-27T10:14:45.304Z,101938.83
2018-09-27T10:19:50.326Z,101929.75
2018-09-27T10:24:54.114Z,101919.30
2018-09-27T10:30:02.349Z,101908.43
2018-09-27T10:35:06.906Z,101897.30
2018-09-27T10:40:10.638Z,101897.13
2018-09-27T10:45:14.284Z,101891.16
2018-09-27T10:50:17.883Z,101882.03
2018-09-27T10:55:21.595Z,101877.17
2018-09-27T11:00:27.225Z,101878.10
2018-09-27T11:05:30.873Z,101861.56
2018-09-27T11:10:39.318Z,101861.28
2018-09-27T11:15:48.926Z,101852.30
2018-09-27T11:20:52.492Z,101837.42
2018-09-27T11:25:56.144Z,101829.63
2018-09-27T11:31:04.980Z,101822.77
2018-09-27T11:36:08.620Z,101819.64
2018-09-27T11:41:12.352Z,101797.77
2018-09-27T11:46:15.963Z,101787.48
2018-09-27T11:51:19.697Z,101781.69
2018-09-27T11:56:23.218Z,101766.87
2018-09-27T12:01:27.016Z,101761.73
2018-09-27T12:06:30.720Z,101745.87
2018-09-27T12:11:35.046Z,101735.45
2018-09-27T12:16:38.758Z,101726.23
2018-09-27T12:21:42.627Z,101712.53
2018-09-27T12:26:46.508Z,101700.25
2018-09-27T12:31:54.966Z,101691.88
2018-09-27T12:36:58.640Z,101685.50
2018-09-27T12:42:02.559Z,101677.25
2018-09-27T12:47:06.228Z,101666.23
2018-09-27T12:52:10.408Z,101672.98
2018-09-27T12:57:13.755Z,101658.36
2018-09-27T13:02:17.590Z,101656.05
2018-09-27T13:07:21.489Z,101639.81
2018-09-27T13:12:25.563Z,101631.47
2018-09-27T13:17:29.280Z,101637.83
2018-09-27T13:22:32.801Z,101629.08
2018-09-27T13:27:36.470Z,101618.83
2018-09-27T13:32:40.349Z,101607.24
2018-09-27T13:37:44.018Z,101604.95
2018-09-27T13:42:47.709Z,101600.89
2018-09-27T13:47:51.424Z,101598.59
2018-09-27T13:52:55.071Z,101579.33
2018-09-27T13:57:58.629Z,101568.17
2018-09-27T14:03:02.304Z,101571.61
2018-09-27T14:08:05.921Z,101556.45
2018-09-27T14:13:09.634Z,101541.27
2018-09-27T14:18:13.189Z,101536.33
2018-09-27T14:23:16.841Z,101528.73
2018-09-27T14:28:20.464Z,101513.58
2018-09-27T14:33:25.365Z,101511.69
2018-09-27T14:38:29.134Z,101504.95
2018-09-27T14:43:32.758Z,101500.88
2018-09-27T14:48:36.523Z,101493.22
2018-09-27T14:53:40.192Z,101485.47
2018-09-27T14:58:43.957Z,101487.49
2018-09-27T15:03:47.621Z,101481.01
2018-09-27T15:08:51.274Z,101466.94
2018-09-27T15:13:56.152Z,101460.73
2018-09-27T15:19:00.075Z,101463.55
2018-09-27T15:24:03.891Z,101458.85
2018-09-27T15:29:07.531Z,101449.80
2018-09-27T15:34:11.470Z,101447.50
2018-09-27T15:39:15.530Z,101442.50
2018-09-27T15:44:19.228Z,101432.24
2018-09-27T15:49:22.903Z,101432.09
2018-09-27T15:54:26.611Z,101422.78
2018-09-27T15:59:30.313Z,101409.16
2018-09-27T16:04:33.963Z,101404.62
2018-09-27T16:09:37.615Z,101401.29
2018-09-27T16:14:41.258Z,101393.62
2018-09-27T16:19:44.862Z,101396.10
2018-09-27T16:24:48.430Z,101399.26
2018-09-27T16:29:55.299Z,101391.34
2018-09-27T16:34:59.171Z,101391.08
2018-09-27T16:40:02.798Z,101386.98
2018-09-27T16:45:06.706Z,101389.41
2018-09-27T16:50:10.324Z,101375.85
2018-09-27T16:55:14.035Z,101383.52
2018-09-27T17:00:28.787Z,101387.59
2018-09-27T17:05:32.391Z,101377.94
2018-09-27T17:10:36.020Z,101381.30
2018-09-27T17:15:39.617Z,101372.31
2018-09-27T17:20:43.209Z,101374.75
2018-09-27T17:25:46.749Z,101368.97
2018-09-27T17:30:50.715Z,101358.91
2018-09-27T17:35:54.330Z,101362.03
2018-09-27T17:40:57.935Z,101356.73
2018-09-27T17:46:03.281Z,101354.48
2018-09-27T17:51:06.893Z,101355.87
2018-09-27T17:56:11.295Z,101347.06
2018-09-27T18:01:14.997Z,101345.17
2018-09-27T18:06:18.631Z,101353.73
2018-09-27T18:11:22.218Z,101354.19
2018-09-27T18:16:25.938Z,101356.61
2018-09-27T18:21:29.473Z,101355.83
2018-09-27T18:26:33.141Z,101352.05
2018-09-27T18:31:36.778Z,101347.55
2018-09-27T18:36:40.383Z,101356.33
2018-09-27T18:41:44.098Z,101352.98
2018-09-27T18:46:47.729Z,101344.77
2018-09-27T18:51:51.289Z,101344.56
2018-09-27T18:56:54.943Z,101343.91
2018-09-27T19:01:58.631Z,101350.12
2018-09-27T19:07:02.359Z,101354.48
2018-09-27T19:12:06.105Z,101348.91
2018-09-27T19:17:09.768Z,101353.35
2018-09-27T19:22:20.096Z,101351.30
2018-09-27T19:27:23.703Z,101360.20
2018-09-27T19:32:27.231Z,101345.84
2018-09-27T19:37:30.828Z,101344.22
2018-09-27T19:42:34.448Z,101345.16
2018-09-27T19:47:38.096Z,101341.83
2018-09-27T19:52:42.025Z,101339.87
2018-09-27T19:57:45.656Z,101339.96
2018-09-27T20:02:50.620Z,101339.64
2018-09-27T20:07:54.421Z,101332.76
2018-09-27T20:12:58.423Z,101332.01
2018-09-27T20:18:02.419Z,101329.41
2018-09-27T20:23:06.100Z,101327.75
2018-09-27T20:28:09.756Z,101329.57
2018-09-27T20:33:14.087Z,101328.31
2018-09-27T20:38:17.695Z,101327.11
2018-09-27T20:43:21.503Z,101331.14
2018-09-27T20:48:25.097Z,101333.32
2018-09-27T20:53:28.656Z,101335.13
2018-09-27T20:58:32.477Z,101326.06
2018-09-27T21:03:36.150Z,101330.42
2018-09-27T21:08:39.703Z,101323.52
2018-09-27T21:13:43.369Z,101318.80
2018-09-27T21:18:46.851Z,101317.98
2018-09-27T21:23:50.584Z,101319.77
2018-09-27T21:28:54.265Z,101316.41
2018-09-27T21:33:57.801Z,101308.63
2018-09-27T21:39:01.376Z,101308.66
2018-09-27T21:44:05.084Z,101299.11
2018-09-27T21:49:08.637Z,101304.80
2018-09-27T21:54:12.228Z,101300.04
2018-09-27T21:59:20.415Z,101294.39
2018-09-27T22:04:24.486Z,101288.75
2018-09-27T22:09:28.234Z,101292.70
2018-09-27T22:14:32.060Z,101286.17
2018-09-27T22:19:35.630Z,101293.61
2018-09-27T22:24:39.185Z,101285.35
2018-09-27T22:29:42.981Z,101287.16
2018-09-27T22:34:46.595Z,101285.02
2018-09-27T22:39:50.126Z,101283.72
2018-09-27T22:44:55.992Z,101275.05
2018-09-27T22:49:59.678Z,101280.71
2018-09-27T22:55:03.240Z,101282.03
2018-09-27T23:00:09.144Z,101275.07
2018-09-27T23:05:12.925Z,101269.05
2018-09-27T23:10:16.532Z,101270.33
2018-09-27T23:15:20.262Z,101273.36
2018-09-27T23:20:23.829Z,101284.67
2018-09-27T23:25:27.575Z,101272.50
2018-09-27T23:30:31.361Z,101281.19
2018-09-27T23:35:34.883Z,101283.36
2018-09-27T23:40:38.480Z,101283.80
2018-09-27T23:45:42.013Z,101288.16
2018-09-27T23:50:45.586Z,101299.88
2018-09-27T23:55:49.188Z,101296.40
